EGKK

London Gatwick Airport

London, United Kingdom
METAR EGKK 231550Z 06014KT 9999 SCT030 03/M03 Q1019
Observed Flight Rules
Feb-23 @ 15:50 UTC (44 minutes ago) Visual Flight Rules
Wind Visibility Clouds
60° at 14 knots 10,000+ meters
  • Scattered at 3,000' AGL
Temperatures Readings
Current 3°C / 37°F
Dewpoint -3°C / 27°F
Humidity 65%
Altimeter 30.09" Hg
Pressure 1019 hPa
Elevation 62
METAR EGKK 231550Z 06014KT 9999 SCT030 03/M03 Q1019
Observed Flight Rules
Feb-23 @ 15:50 UTC
(44 minutes ago)
VFR
Wind Visibility
60° at 14 knots 10,000+ meters
Clouds
  • Scattered at 3,000' AGL
Temperature Dewpoint
3°C / 37°F -3°C / 27°F
Humidity Altimeter Pressure
65% 30.09" Hg 1019 hPa